Station: Jabiru

  Atmospheric Gas Attenuation - ITU Rec 676-11   --------------- db/100km ---------------
Date Time Temp RH % AH g/m3 Dew Point Wind Direction Speed kph Gust kph Barometer mB Rainfall Since 9am 24GHz 47GHz 76GHz 122GHz 134GHz 241GHz
07 07:20 20.2 92 16.08 18.9 0 0 1012.7 0 35.2 36.7 68.0 179.7 193.2 670.2
07 07:10 19.9 92 15.81 18.6 0 0 1012.5 0 34.6 36.3 67.0 177.0 189.8 658.3
07 07:00 19.6 90 15.19 17.9 0 0 1012.2 0 33.3 35.3 64.4 170.0 181.1 628.0
07 06:50 19.6 90 15.19 17.9 0 0 1012.3 0 33.3 35.3 64.4 170.0 181.1 628.1
07 06:40 19.8 88 15.03 17.8 0 0 1012.1 0 33.0 34.9 63.4 167.6 178.2 618.0
07 06:30 20.2 89 15.56 18.3 0 0 1011.7 0 34.1 35.7 65.5 173.1 185.2 642.2
07 06:20 20.3 90 15.83 18.6 0 0 1011.8 0 34.7 36.1 66.7 176.2 189.0 655.6
07 06:10 20.5 94 16.72 19.5 0 0 1011.7 0 36.5 37.7 70.7 186.8 202.1 701.3
07 06:00 20.3 94 16.53 19.3 7 9 1011.4 0 36.2 37.4 70.0 184.9 199.7 692.8
07 05:50 20.1 93 16.16 18.9 9 9 1011.5 0 35.4 36.8 68.4 180.7 194.5 674.8
07 05:40 20.2 92 16.08 18.9 9 9 1011.4 0 35.2 36.6 67.9 179.5 193.0 669.6
07 05:30 20.3 92 16.18 19 2 9 1011.2 0 35.4 36.8 68.3 180.5 194.3 673.9
07 05:20 20.5 91 16.19 19 0 0 1011.4 0 35.4 36.7 68.2 180.1 193.9 672.8
07 05:10 20.6 92 16.46 19.3 0 0 1011.3 0 36.0 37.2 69.3 183.3 197.8 686.2
07 04:50 20.4 90 15.92 18.7 7 7 1011 0 34.8 36.2 67.0 177.0 190.0 659.1
07 04:40 20.5 90 16.01 18.8 6 6 1010.9 0 35.0 36.4 67.3 177.8 191.1 663.0
07 04:30 20.3 87 15.3 18.1 0 4 1010.7 0 33.5 35.1 64.2 169.6 180.9 627.3
07 04:20 20.6 87 15.57 18.4 4 6 1010.8 0 34.1 35.5 65.2 172.2 184.2 638.9
07 04:10 20.8 86 15.57 18.4 0 6 1010.8 0 34.1 35.4 65.0 171.7 183.7 637.2
07 04:00 21.3 83 15.47 18.3 0 0 1010.5 0 33.8 35.0 64.1 169.4 181.0 627.8
07 03:50 21.4 85 15.93 18.8 0 0 1010.8 0 34.8 35.8 66.1 174.8 187.6 650.9
07 03:40 21.2 86 15.94 18.8 0 0 1010.8 0 34.8 35.9 66.4 175.3 188.3 653.2
07 03:30 21.2 85 15.75 18.6 0 0 1010.6 0 34.4 35.6 65.5 173.0 185.4 643.2
07 03:20 21.5 85 16.03 18.9 0 0 1010.8 0 35.0 36.0 66.5 175.7 188.9 655.3
07 03:10 21.6 85 16.12 19 0 0 1010.9 0 35.2 36.1 66.8 176.6 190.0 659.2
07 03:00 21.8 84 16.11 19 0 0 1010.7 0 35.1 36.0 66.6 176.0 189.3 656.8
07 02:50 22.1 83 16.2 19.1 0 0 1011.1 0 35.3 36.0 66.8 176.5 189.9 659.1
07 02:40 21.8 83 15.92 18.8 0 0 1011.2 0 34.7 35.6 65.8 173.8 186.5 647.2
07 02:30 22.1 83 16.2 19.1 0 0 1011 0 35.3 36.0 66.8 176.5 189.9 659.0
07 02:20 22.4 83 16.48 19.4 0 0 1011.4 0 35.9 36.4 67.8 179.2 193.4 671.2
07 02:10 22.2 80 15.71 18.6 0 0 1011.5 0 34.2 35.1 64.5 170.4 182.5 633.1
07 02:00 22.3 80 15.8 18.7 0 0 1011.4 0 34.4 35.2 64.8 171.2 183.5 636.9
07 01:49 22.3 78 15.4 18.3 0 0 1011.6 0 33.6 34.5 63.0 166.5 177.7 616.5
07 01:40 22.7 77 15.56 18.5 0 0 1011.6 0 33.9 34.6 63.4 167.5 179.1 621.4
07 01:30 22.9 78 15.94 18.9 2 6 1011.5 0 34.7 35.2 64.9 171.6 184.2 639.1
07 01:20 23.3 81 16.93 19.9 6 6 1011.7 0 36.7 36.9 69.1 182.6 197.8 686.8
07 01:10 23.3 82 17.14 20.1 7 9 1011.8 0 37.2 37.3 70.1 185.2 201.0 697.8
07 01:00 23.1 78 16.12 19.1 7 7 1011.7 0 35.0 35.5 65.6 173.3 186.3 646.7
07 00:50 23 77 15.83 18.7 7 7 1012 0 34.4 35.0 64.4 170.1 182.4 632.9
07 00:40 22.9 74 15.12 18 7 7 1012 0 32.9 33.8 61.3 162.0 172.3 597.9
07 00:30 23 74 15.21 18.1 7 9 1011.8 0 33.1 33.9 61.6 162.8 173.4 601.5
07 00:20 23 72 14.8 17.7 7 7 1012 0 32.2 33.2 59.9 158.1 167.5 581.2
07 00:10 23.2 71 14.76 17.6 7 7 1012.1 0 32.1 33.1 59.5 157.2 166.5 577.8
07 00:00 23.2 69 14.34 17.2 6 7 1011.8 0 31.2 32.3 57.7 152.4 160.6 557.1
06 23:50 23.7 69 14.76 17.7 6 7 1012 0 32.1 32.9 59.1 156.2 165.4 574.0
06 23:40 23.7 67 14.33 17.2 9 9 1012 0 31.2 32.1 57.3 151.3 159.5 553.1
06 23:30 24.1 65 14.22 17.1 6 7 1011.9 0 30.9 31.8 56.6 149.3 157.1 544.9
06 23:20 24.4 65 14.46 17.4 7 7 1012.1 0 31.4 32.1 57.4 151.4 159.8 554.4
06 23:10 24.5 63 14.1 17.2 6 7 1012.1 0 30.6 31.4 55.8 147.2 154.7 536.5
06 23:00 24.8 62 14.11 17 6 7 1011.9 0 30.6 31.3 55.6 146.7 154.2 534.8
06 22:50 24.9 61 13.96 16.9 6 7 1012.1 0 30.3 31.1 54.9 144.9 152.0 527.2
06 22:40 25.2 60 13.97 16.9 6 7 1012.1 0 30.3 31.0 54.7 144.5 151.5 525.6
06 22:30 25.3 60 14.05 17 6 9 1011.8 0 30.5 31.1 55.0 145.1 152.4 528.6
06 22:20 25.2 60 13.97 17.1 7 9 1011.8 0 30.3 31.0 54.7 144.4 151.5 525.5
06 22:10 24.9 62 14.19 17.1 7 7 1011.8 0 30.8 31.4 55.8 147.4 155.1 537.9
06 22:00 24.8 63 14.34 17.3 0 0 1011.5 0 31.1 31.7 56.5 149.2 157.3 545.6
06 21:50 24.4 63 14.02 16.9 0 0 1011.7 0 30.5 31.3 55.5 146.5 153.7 533.2
06 21:40 24.8 60 13.66 16.5 0 0 1011.6 0 29.7 30.6 53.7 141.8 148.1 513.6
06 21:30 25.1 58 13.43 16.3 0 0 1011.3 0 29.2 30.1 52.6 138.7 144.4 500.9
06 21:20 25.7 56 13.41 16.3 0 0 1011.4 0 29.1 29.9 52.1 137.5 143.1 496.2
06 21:10 26 55 13.39 16.5 0 0 1011.3 0 29.0 29.7 51.8 136.7 142.2 493.3
06 21:00 26.5 55 13.77 16.7 6 7 1010.9 0 29.8 30.2 53.0 139.8 146.2 507.3
06 20:50 26.7 53 13.42 16.3 7 7 1011 0 29.0 29.5 51.5 135.8 141.3 490.2
06 20:40 26.9 53 13.57 16.5 7 9 1010.9 0 29.3 29.7 51.9 137.0 142.9 495.7
06 20:30 27 53 13.64 16.6 7 11 1010.6 0 29.5 29.8 52.1 137.5 143.6 498.1
06 20:20 27.2 53 13.79 16.8 7 7 1010.7 0 29.8 29.9 52.6 138.8 145.2 503.7
06 20:10 27.5 52 13.76 16.8 7 9 1010.6 0 29.7 29.8 52.3 137.9 144.2 500.4
06 20:00 27.8 50 13.45 16.7 9 13 1010.2 0 29.0 29.2 50.8 134.1 139.6 484.5
06 19:50 27.9 51 13.79 17.1 7 9 1010.3 0 29.7 29.7 52.1 137.5 143.8 499.1
06 19:40 28.3 50 13.82 16.9 13 15 1010.1 0 29.8 29.6 51.9 137.1 143.4 497.8
06 19:30 28.6 51 14.33 17.5 13 17 1009.7 0 30.8 30.3 53.7 141.9 149.4 518.6
06 19:20 28.8 49 13.92 17.3 15 17 1009.8 0 29.9 29.6 52.0 137.2 143.8 499.0
06 19:10 28.8 51 14.49 17.7 17 20 1009.7 0 31.1 30.5 54.2 143.2 151.1 524.5
06 19:00 29 52 14.94 18.4 11 15 1009.5 0 32.1 31.1 55.9 147.6 156.5 543.5
06 18:50 29.1 53 15.31 18.8 11 13 1009.6 0 32.8 31.7 57.3 151.3 161.2 559.8
06 18:40 29.3 52 15.18 18.7 11 15 1009.4 0 32.5 31.4 56.6 149.5 159.0 552.3
06 18:30 29.6 51 15.14 18.4 13 17 1009 0 32.4 31.2 56.2 148.5 157.8 548.2
06 18:20 30 49 14.86 18.4 13 15 1009 0 31.8 30.6 54.8 144.8 153.4 532.8
06 18:09 30.4 48 14.88 18.2 13 17 1009 0 31.8 30.5 54.6 144.3 152.9 531.0
06 18:00 30.7 45 14.17 17.7 13 17 1008.7 0 30.3 29.3 51.7 136.4 143.3 497.7
06 17:50 30.7 45 14.17 17.7 13 15 1008.9 0 30.3 29.3 51.7 136.4 143.3 497.8
06 17:40 31.2 44 14.24 17.5 11 15 1008.9 0 30.4 29.2 51.6 136.3 143.3 497.7
06 17:30 31.8 42 14.03 17.3 9 19 1008.7 0 30.0 28.7 50.4 133.2 139.6 484.9
06 17:20 32.3 35 12.01 15.3 11 11 1008.8 0 25.8 25.6 42.9 112.9 114.9 398.5
06 17:10 32.2 37 12.63 15.7 11 13 1008.8 0 27.0 26.5 45.1 118.9 122.2 424.1
06 17:00 31.8 37 12.36 15.3 13 17 1008.6 0 26.5 26.3 44.3 116.9 119.6 415.1
06 16:50 32.1 37 12.56 15.6 11 15 1008.7 0 26.9 26.5 44.9 118.4 121.5 421.7
06 16:40 31.7 37 12.3 15.6 13 15 1008.6 0 26.4 26.2 44.2 116.5 119.1 413.1
06 16:30 32.2 37 12.63 15.7 15 20 1008.4 0 27.0 26.5 45.1 118.9 122.2 423.9
06 16:20 32.9 34 12.04 15 19 20 1008.5 0 25.8 25.5 42.6 112.4 114.3 396.6
06 16:10 32.5 36 12.48 15.5 4 7 1008.5 0 26.7 26.2 44.4 117.0 120.0 416.3
06 16:00 31.8 37 12.36 15.3 9 17 1008.3 0 26.5 26.2 44.3 116.9 119.6 415.0
06 15:50 32.1 35 11.88 15.1 11 13 1008.6 0 25.5 25.5 42.5 112.0 113.7 394.2
06 15:40 32.6 36 12.55 16 9 13 1008.6 0 26.9 26.3 44.6 117.6 120.7 418.7
06 15:30 32.6 37 12.9 16.4 11 19 1008.4 0 27.6 26.8 45.8 120.9 124.7 432.9
06 15:20 32.2 39 13.31 16.5 9 11 1008.7 0 28.4 27.5 47.5 125.4 130.2 452.1
06 15:10 31.3 40 13.01 16.1 6 9 1008.8 0 27.9 27.4 47.0 123.9 128.1 444.6
06 15:00 31 41 13.12 16.2 11 17 1008.7 0 28.1 27.6 47.6 125.5 129.9 450.9
06 14:50 31.5 40 13.15 16.3 15 20 1009.1 0 28.2 27.5 47.4 125.0 129.5 449.5
06 14:40 31.3 40 13.01 16.1 13 15 1009.1 0 27.9 27.4 47.0 124.0 128.2 444.7

Last Refresh: 07-Aug-2020 07:34:34

Most of the information presented on this site is sourced from the Bureau of Meteorology.  Copyright in all material sourced from the Bureau of Meteorology resides with the Commonwealth of Australia.